sensor_id;sensor_type;location;lat;lon;timestamp;temperature;humidity
24402;DHT22;12539;48.808;11.292;2023-02-28T00:02:15;1.30;99.90
24402;DHT22;12539;48.808;11.292;2023-02-28T00:04:43;1.40;99.90
24402;DHT22;12539;48.808;11.292;2023-02-28T00:07:09;1.40;99.90
24402;DHT22;12539;48.808;11.292;2023-02-28T00:09:34;1.50;99.90
24402;DHT22;12539;48.808;11.292;2023-02-28T00:12:00;1.50;99.90
24402;DHT22;12539;48.808;11.292;2023-02-28T00:14:29;1.50;99.90
24402;DHT22;12539;48.808;11.292;2023-02-28T00:16:55;1.50;99.90
24402;DHT22;12539;48.808;11.292;2023-02-28T00:19:20;1.60;99.80
24402;DHT22;12539;48.808;11.292;2023-02-28T00:21:46;1.50;99.90
24402;DHT22;12539;48.808;11.292;2023-02-28T00:24:11;1.50;99.90
24402;DHT22;12539;48.808;11.292;2023-02-28T00:26:37;1.60;99.90
24402;DHT22;12539;48.808;11.292;2023-02-28T00:29:02;1.60;99.90
24402;DHT22;12539;48.808;11.292;2023-02-28T00:31:28;1.60;99.90
24402;DHT22;12539;48.808;11.292;2023-02-28T00:33:53;1.50;99.60
24402;DHT22;12539;48.808;11.292;2023-02-28T00:36:21;1.50;99.90
24402;DHT22;12539;48.808;11.292;2023-02-28T00:38:47;1.40;99.50
24402;DHT22;12539;48.808;11.292;2023-02-28T00:41:12;1.40;99.40
24402;DHT22;12539;48.808;11.292;2023-02-28T00:43:38;1.30;99.40
24402;DHT22;12539;48.808;11.292;2023-02-28T00:46:04;1.30;99.90
24402;DHT22;12539;48.808;11.292;2023-02-28T00:48:30;1.30;99.90
24402;DHT22;12539;48.808;11.292;2023-02-28T00:50:56;1.30;99.90
24402;DHT22;12539;48.808;11.292;2023-02-28T00:53:21;1.20;99.90
24402;DHT22;12539;48.808;11.292;2023-02-28T00:55:48;1.20;99.90
24402;DHT22;12539;48.808;11.292;2023-02-28T00:58:13;1.20;99.90
24402;DHT22;12539;48.808;11.292;2023-02-28T01:00:39;1.20;99.90
24402;DHT22;12539;48.808;11.292;2023-02-28T01:03:07;1.20;99.90
24402;DHT22;12539;48.808;11.292;2023-02-28T01:05:32;1.20;99.90
24402;DHT22;12539;48.808;11.292;2023-02-28T01:07:58;1.20;99.90
24402;DHT22;12539;48.808;11.292;2023-02-28T01:10:24;1.20;99.90
24402;DHT22;12539;48.808;11.292;2023-02-28T01:12:50;1.20;99.70
24402;DHT22;12539;48.808;11.292;2023-02-28T01:15:15;1.10;99.90
24402;DHT22;12539;48.808;11.292;2023-02-28T01:17:41;1.10;99.30
24402;DHT22;12539;48.808;11.292;2023-02-28T01:20:07;1.10;99.90
24402;DHT22;12539;48.808;11.292;2023-02-28T01:22:34;1.00;99.50
24402;DHT22;12539;48.808;11.292;2023-02-28T01:24:59;1.00;99.90
24402;DHT22;12539;48.808;11.292;2023-02-28T01:27:25;1.00;99.40
24402;DHT22;12539;48.808;11.292;2023-02-28T01:29:51;1.00;99.90
24402;DHT22;12539;48.808;11.292;2023-02-28T01:32:17;0.90;99.40
24402;DHT22;12539;48.808;11.292;2023-02-28T01:34:42;0.90;99.20
24402;DHT22;12539;48.808;11.292;2023-02-28T01:37:08;0.90;99.90
24402;DHT22;12539;48.808;11.292;2023-02-28T01:39:33;0.90;99.90
24402;DHT22;12539;48.808;11.292;2023-02-28T01:41:59;1.00;99.90
24402;DHT22;12539;48.808;11.292;2023-02-28T01:47:09;0.90;99.90
24402;DHT22;12539;48.808;11.292;2023-02-28T01:49:35;0.90;99.90
24402;DHT22;12539;48.808;11.292;2023-02-28T01:52:00;0.80;99.90
24402;DHT22;12539;48.808;11.292;2023-02-28T01:54:27;0.80;99.90
24402;DHT22;12539;48.808;11.292;2023-02-28T01:56:55;0.80;99.90
24402;DHT22;12539;48.808;11.292;2023-02-28T01:59:55;0.80;99.90
24402;DHT22;12539;48.808;11.292;2023-02-28T02:02:16;0.80;99.90
24402;DHT22;12539;48.808;11.292;2023-02-28T02:04:46;0.70;99.70
24402;DHT22;12539;48.808;11.292;2023-02-28T02:07:15;0.70;99.90
24402;DHT22;12539;48.808;11.292;2023-02-28T02:09:41;0.60;99.90
24402;DHT22;12539;48.808;11.292;2023-02-28T02:12:11;0.60;99.90
24402;DHT22;12539;48.808;11.292;2023-02-28T02:17:16;0.50;99.90
24402;DHT22;12539;48.808;11.292;2023-02-28T02:19:58;0.50;99.90
24402;DHT22;12539;48.808;11.292;2023-02-28T02:24:58;0.50;99.90
24402;DHT22;12539;48.808;11.292;2023-02-28T02:32:40;0.50;99.90
24402;DHT22;12539;48.808;11.292;2023-02-28T02:37:46;0.50;99.90
24402;DHT22;12539;48.808;11.292;2023-02-28T02:42:52;0.60;99.90
24402;DHT22;12539;48.808;11.292;2023-02-28T02:45:26;0.60;99.90
24402;DHT22;12539;48.808;11.292;2023-02-28T02:47:53;0.60;99.90
24402;DHT22;12539;48.808;11.292;2023-02-28T02:50:29;0.50;99.90
24402;DHT22;12539;48.808;11.292;2023-02-28T02:52:57;0.50;99.90
24402;DHT22;12539;48.808;11.292;2023-02-28T02:55:24;0.50;99.90
24402;DHT22;12539;48.808;11.292;2023-02-28T02:57:56;0.40;99.90
24402;DHT22;12539;48.808;11.292;2023-02-28T03:00:25;0.30;99.90
24402;DHT22;12539;48.808;11.292;2023-02-28T03:02:52;0.40;99.90
24402;DHT22;12539;48.808;11.292;2023-02-28T03:05:20;0.40;99.90
24402;DHT22;12539;48.808;11.292;2023-02-28T03:07:46;0.40;99.90
24402;DHT22;12539;48.808;11.292;2023-02-28T03:10:25;0.40;99.90
24402;DHT22;12539;48.808;11.292;2023-02-28T03:12:54;0.30;99.90
24402;DHT22;12539;48.808;11.292;2023-02-28T03:15:27;0.20;99.90
24402;DHT22;12539;48.808;11.292;2023-02-28T03:28:36;0.20;99.90
24402;DHT22;12539;48.808;11.292;2023-02-28T03:31:07;0.30;99.90
24402;DHT22;12539;48.808;11.292;2023-02-28T03:33:46;0.20;99.90
24402;DHT22;12539;48.808;11.292;2023-02-28T03:36:20;0.20;99.90
24402;DHT22;12539;48.808;11.292;2023-02-28T03:39:04;0.20;99.90
24402;DHT22;12539;48.808;11.292;2023-02-28T03:41:47;0.20;99.90
24402;DHT22;12539;48.808;11.292;2023-02-28T03:44:17;0.30;99.90
24402;DHT22;12539;48.808;11.292;2023-02-28T03:46:48;0.30;99.90
24402;DHT22;12539;48.808;11.292;2023-02-28T03:49:17;0.30;99.90
24402;DHT22;12539;48.808;11.292;2023-02-28T03:51:45;0.20;99.90
24402;DHT22;12539;48.808;11.292;2023-02-28T03:54:22;0.20;99.90
24402;DHT22;12539;48.808;11.292;2023-02-28T03:57:00;0.10;99.90
24402;DHT22;12539;48.808;11.292;2023-02-28T03:59:28;0.00;99.90
24402;DHT22;12539;48.808;11.292;2023-02-28T04:01:56;0.00;99.90
24402;DHT22;12539;48.808;11.292;2023-02-28T04:04:23;-0.10;99.90
24402;DHT22;12539;48.808;11.292;2023-02-28T04:06:49;0.00;99.90
24402;DHT22;12539;48.808;11.292;2023-02-28T04:09:15;-0.10;99.90
24402;DHT22;12539;48.808;11.292;2023-02-28T04:11:41;0.00;99.90
24402;DHT22;12539;48.808;11.292;2023-02-28T04:14:08;0.00;99.90
24402;DHT22;12539;48.808;11.292;2023-02-28T04:16:34;0.00;99.90
24402;DHT22;12539;48.808;11.292;2023-02-28T04:19:00;0.00;99.90
24402;DHT22;12539;48.808;11.292;2023-02-28T04:21:30;0.10;99.90
24402;DHT22;12539;48.808;11.292;2023-02-28T04:23:56;0.00;99.90
24402;DHT22;12539;48.808;11.292;2023-02-28T04:26:32;0.00;99.90
24402;DHT22;12539;48.808;11.292;2023-02-28T04:28:58;0.00;99.90
24402;DHT22;12539;48.808;11.292;2023-02-28T04:31:24;0.10;99.90
24402;DHT22;12539;48.808;11.292;2023-02-28T04:33:50;0.10;99.90
24402;DHT22;12539;48.808;11.292;2023-02-28T04:36:16;0.00;99.90
24402;DHT22;12539;48.808;11.292;2023-02-28T04:38:43;0.00;99.90
24402;DHT22;12539;48.808;11.292;2023-02-28T04:41:09;0.00;99.90
24402;DHT22;12539;48.808;11.292;2023-02-28T04:43:34;0.00;99.90
24402;DHT22;12539;48.808;11.292;2023-02-28T04:46:04;0.00;99.90
24402;DHT22;12539;48.808;11.292;2023-02-28T04:48:31;-0.10;99.90
24402;DHT22;12539;48.808;11.292;2023-02-28T04:51:00;-0.10;99.90
24402;DHT22;12539;48.808;11.292;2023-02-28T04:53:27;-0.20;99.90
24402;DHT22;12539;48.808;11.292;2023-02-28T04:55:52;-0.20;99.90
24402;DHT22;12539;48.808;11.292;2023-02-28T04:58:18;-0.10;99.90
24402;DHT22;12539;48.808;11.292;2023-02-28T05:00:43;-0.10;99.90
24402;DHT22;12539;48.808;11.292;2023-02-28T05:03:09;-0.10;99.90
24402;DHT22;12539;48.808;11.292;2023-02-28T05:05:35;-0.10;99.90
24402;DHT22;12539;48.808;11.292;2023-02-28T05:08:00;0.00;99.90
24402;DHT22;12539;48.808;11.292;2023-02-28T05:10:26;0.00;99.90
24402;DHT22;12539;48.808;11.292;2023-02-28T05:12:51;0.10;99.90
24402;DHT22;12539;48.808;11.292;2023-02-28T05:15:17;0.10;99.90
24402;DHT22;12539;48.808;11.292;2023-02-28T05:17:43;0.00;99.90
24402;DHT22;12539;48.808;11.292;2023-02-28T05:20:08;0.00;99.90
24402;DHT22;12539;48.808;11.292;2023-02-28T05:22:39;0.10;99.90
24402;DHT22;12539;48.808;11.292;2023-02-28T05:25:04;0.10;99.90
24402;DHT22;12539;48.808;11.292;2023-02-28T05:27:30;0.10;99.90
24402;DHT22;12539;48.808;11.292;2023-02-28T05:29:56;0.10;99.90
24402;DHT22;12539;48.808;11.292;2023-02-28T05:32:21;0.20;99.90
24402;DHT22;12539;48.808;11.292;2023-02-28T05:34:47;0.10;99.90
24402;DHT22;12539;48.808;11.292;2023-02-28T05:37:13;0.10;99.90
24402;DHT22;12539;48.808;11.292;2023-02-28T05:39:39;0.10;99.90
24402;DHT22;12539;48.808;11.292;2023-02-28T05:42:05;-0.10;99.90
24402;DHT22;12539;48.808;11.292;2023-02-28T05:44:30;-0.10;99.90
24402;DHT22;12539;48.808;11.292;2023-02-28T05:46:56;-0.20;99.90
24402;DHT22;12539;48.808;11.292;2023-02-28T05:49:21;-0.10;99.90
24402;DHT22;12539;48.808;11.292;2023-02-28T05:51:47;-0.10;99.90
24402;DHT22;12539;48.808;11.292;2023-02-28T05:54:13;-0.10;99.90
24402;DHT22;12539;48.808;11.292;2023-02-28T05:56:38;-0.10;99.90
24402;DHT22;12539;48.808;11.292;2023-02-28T05:59:09;0.00;99.90
24402;DHT22;12539;48.808;11.292;2023-02-28T06:01:39;0.00;99.90
24402;DHT22;12539;48.808;11.292;2023-02-28T06:04:06;0.00;99.90
24402;DHT22;12539;48.808;11.292;2023-02-28T06:06:32;0.10;99.90
24402;DHT22;12539;48.808;11.292;2023-02-28T06:08:59;0.10;99.90
24402;DHT22;12539;48.808;11.292;2023-02-28T06:11:26;0.20;99.90
24402;DHT22;12539;48.808;11.292;2023-02-28T06:13:56;0.20;99.90
24402;DHT22;12539;48.808;11.292;2023-02-28T06:16:22;0.20;99.90
24402;DHT22;12539;48.808;11.292;2023-02-28T06:18:47;0.30;99.90
24402;DHT22;12539;48.808;11.292;2023-02-28T06:21:13;0.30;99.90
24402;DHT22;12539;48.808;11.292;2023-02-28T06:23:38;0.40;99.90
24402;DHT22;12539;48.808;11.292;2023-02-28T06:26:04;0.40;99.90
24402;DHT22;12539;48.808;11.292;2023-02-28T06:28:30;0.40;99.90
24402;DHT22;12539;48.808;11.292;2023-02-28T06:31:17;0.50;99.90
24402;DHT22;12539;48.808;11.292;2023-02-28T06:33:42;0.50;99.90
24402;DHT22;12539;48.808;11.292;2023-02-28T06:36:09;0.50;99.90
24402;DHT22;12539;48.808;11.292;2023-02-28T06:38:35;0.50;99.90
24402;DHT22;12539;48.808;11.292;2023-02-28T06:41:01;0.60;99.90
24402;DHT22;12539;48.808;11.292;2023-02-28T06:43:28;0.70;99.90
24402;DHT22;12539;48.808;11.292;2023-02-28T06:45:54;0.70;99.90
24402;DHT22;12539;48.808;11.292;2023-02-28T06:48:20;0.70;99.90
24402;DHT22;12539;48.808;11.292;2023-02-28T06:50:46;0.90;99.90
24402;DHT22;12539;48.808;11.292;2023-02-28T06:53:12;1.00;99.90
24402;DHT22;12539;48.808;11.292;2023-02-28T06:55:38;1.10;99.90
24402;DHT22;12539;48.808;11.292;2023-02-28T06:58:04;1.20;99.90
24402;DHT22;12539;48.808;11.292;2023-02-28T07:00:43;1.20;99.90
24402;DHT22;12539;48.808;11.292;2023-02-28T07:03:09;1.30;99.90
24402;DHT22;12539;48.808;11.292;2023-02-28T07:05:38;1.30;99.90
24402;DHT22;12539;48.808;11.292;2023-02-28T07:08:05;1.20;99.90
24402;DHT22;12539;48.808;11.292;2023-02-28T07:10:31;1.30;99.90
24402;DHT22;12539;48.808;11.292;2023-02-28T07:12:58;1.30;99.90
24402;DHT22;12539;48.808;11.292;2023-02-28T07:15:24;1.40;99.90
24402;DHT22;12539;48.808;11.292;2023-02-28T07:17:49;1.40;99.90
24402;DHT22;12539;48.808;11.292;2023-02-28T07:20:15;1.50;99.90
24402;DHT22;12539;48.808;11.292;2023-02-28T07:22:41;1.60;99.90
24402;DHT22;12539;48.808;11.292;2023-02-28T07:25:07;1.70;99.90
24402;DHT22;12539;48.808;11.292;2023-02-28T07:27:32;1.90;99.90
24402;DHT22;12539;48.808;11.292;2023-02-28T07:29:59;1.90;99.90
24402;DHT22;12539;48.808;11.292;2023-02-28T07:32:27;2.00;99.90
24402;DHT22;12539;48.808;11.292;2023-02-28T07:34:53;2.00;99.90
24402;DHT22;12539;48.808;11.292;2023-02-28T07:37:18;2.00;99.90
24402;DHT22;12539;48.808;11.292;2023-02-28T07:39:44;2.10;99.90
24402;DHT22;12539;48.808;11.292;2023-02-28T07:42:09;2.10;99.90
24402;DHT22;12539;48.808;11.292;2023-02-28T07:44:40;2.20;99.90
24402;DHT22;12539;48.808;11.292;2023-02-28T07:47:09;2.20;99.90
24402;DHT22;12539;48.808;11.292;2023-02-28T07:49:37;2.30;99.90
24402;DHT22;12539;48.808;11.292;2023-02-28T07:52:04;2.30;99.90
24402;DHT22;12539;48.808;11.292;2023-02-28T07:54:29;2.40;99.90
24402;DHT22;12539;48.808;11.292;2023-02-28T07:56:55;2.40;99.90
24402;DHT22;12539;48.808;11.292;2023-02-28T07:59:22;2.50;99.90
24402;DHT22;12539;48.808;11.292;2023-02-28T08:01:47;2.60;99.90
24402;DHT22;12539;48.808;11.292;2023-02-28T08:04:16;2.60;99.90
24402;DHT22;12539;48.808;11.292;2023-02-28T08:06:41;2.70;99.90
24402;DHT22;12539;48.808;11.292;2023-02-28T08:09:07;2.70;99.90
24402;DHT22;12539;48.808;11.292;2023-02-28T08:11:32;2.80;99.90
24402;DHT22;12539;48.808;11.292;2023-02-28T08:13:58;2.90;99.90
24402;DHT22;12539;48.808;11.292;2023-02-28T08:16:24;2.90;99.90
24402;DHT22;12539;48.808;11.292;2023-02-28T08:18:51;3.00;99.90
24402;DHT22;12539;48.808;11.292;2023-02-28T08:21:16;3.00;99.20
24402;DHT22;12539;48.808;11.292;2023-02-28T08:23:42;3.10;98.70
24402;DHT22;12539;48.808;11.292;2023-02-28T08:26:07;3.20;98.60
24402;DHT22;12539;48.808;11.292;2023-02-28T08:28:33;3.20;97.00
24402;DHT22;12539;48.808;11.292;2023-02-28T08:30:59;3.20;97.40
24402;DHT22;12539;48.808;11.292;2023-02-28T08:33:24;3.30;97.80
24402;DHT22;12539;48.808;11.292;2023-02-28T08:35:54;3.30;96.50
24402;DHT22;12539;48.808;11.292;2023-02-28T08:38:20;3.30;96.00
24402;DHT22;12539;48.808;11.292;2023-02-28T08:40:46;3.40;95.10
24402;DHT22;12539;48.808;11.292;2023-02-28T08:43:12;3.40;94.30
24402;DHT22;12539;48.808;11.292;2023-02-28T08:45:37;3.40;95.20
24402;DHT22;12539;48.808;11.292;2023-02-28T08:48:03;3.50;95.80
24402;DHT22;12539;48.808;11.292;2023-02-28T08:50:29;3.50;94.90
24402;DHT22;12539;48.808;11.292;2023-02-28T08:52:54;3.50;92.80
24402;DHT22;12539;48.808;11.292;2023-02-28T08:55:20;3.50;92.30
24402;DHT22;12539;48.808;11.292;2023-02-28T08:57:45;3.50;92.50
24402;DHT22;12539;48.808;11.292;2023-02-28T09:00:11;3.50;90.40
24402;DHT22;12539;48.808;11.292;2023-02-28T09:02:39;3.40;91.40
24402;DHT22;12539;48.808;11.292;2023-02-28T09:05:04;3.50;90.70
24402;DHT22;12539;48.808;11.292;2023-02-28T09:07:30;3.50;90.00
24402;DHT22;12539;48.808;11.292;2023-02-28T09:09:55;3.50;90.70
24402;DHT22;12539;48.808;11.292;2023-02-28T09:12:26;3.60;91.30
24402;DHT22;12539;48.808;11.292;2023-02-28T09:14:52;3.70;90.20
24402;DHT22;12539;48.808;11.292;2023-02-28T09:17:18;3.70;91.00
24402;DHT22;12539;48.808;11.292;2023-02-28T09:19:44;3.70;90.70
24402;DHT22;12539;48.808;11.292;2023-02-28T09:24:35;3.90;91.10
24402;DHT22;12539;48.808;11.292;2023-02-28T09:29:45;3.90;90.60
24402;DHT22;12539;48.808;11.292;2023-02-28T09:32:11;3.90;90.30
24402;DHT22;12539;48.808;11.292;2023-02-28T09:34:36;3.90;85.60
24402;DHT22;12539;48.808;11.292;2023-02-28T09:37:02;3.80;84.70
24402;DHT22;12539;48.808;11.292;2023-02-28T09:39:27;3.70;86.50
24402;DHT22;12539;48.808;11.292;2023-02-28T09:41:54;3.70;85.30
24402;DHT22;12539;48.808;11.292;2023-02-28T09:47:00;3.70;86.60
24402;DHT22;12539;48.808;11.292;2023-02-28T09:49:40;3.80;88.80
24402;DHT22;12539;48.808;11.292;2023-02-28T09:52:09;3.80;87.30
24402;DHT22;12539;48.808;11.292;2023-02-28T09:54:35;3.90;87.20
24402;DHT22;12539;48.808;11.292;2023-02-28T09:59:41;3.90;84.20
24402;DHT22;12539;48.808;11.292;2023-02-28T10:05:17;3.90;85.60
24402;DHT22;12539;48.808;11.292;2023-02-28T10:07:53;4.00;84.80
24402;DHT22;12539;48.808;11.292;2023-02-28T10:12:50;4.00;83.20
24402;DHT22;12539;48.808;11.292;2023-02-28T10:15:17;4.00;83.30
24402;DHT22;12539;48.808;11.292;2023-02-28T10:17:43;4.00;86.80
24402;DHT22;12539;48.808;11.292;2023-02-28T10:20:11;4.00;87.30
24402;DHT22;12539;48.808;11.292;2023-02-28T10:25:24;4.20;85.20
24402;DHT22;12539;48.808;11.292;2023-02-28T10:27:52;4.20;84.90
24402;DHT22;12539;48.808;11.292;2023-02-28T10:30:18;4.20;84.20
24402;DHT22;12539;48.808;11.292;2023-02-28T10:32:53;4.20;83.60
24402;DHT22;12539;48.808;11.292;2023-02-28T10:35:21;4.20;83.50
24402;DHT22;12539;48.808;11.292;2023-02-28T10:37:50;4.20;84.00
24402;DHT22;12539;48.808;11.292;2023-02-28T10:42:58;4.30;83.40
24402;DHT22;12539;48.808;11.292;2023-02-28T10:45:24;4.30;82.60
24402;DHT22;12539;48.808;11.292;2023-02-28T10:51:03;4.30;81.60
24402;DHT22;12539;48.808;11.292;2023-02-28T10:55:41;4.40;82.90
24402;DHT22;12539;48.808;11.292;2023-02-28T10:58:22;4.40;82.20
24402;DHT22;12539;48.808;11.292;2023-02-28T11:00:48;4.40;83.30
24402;DHT22;12539;48.808;11.292;2023-02-28T11:03:33;4.50;82.10
24402;DHT22;12539;48.808;11.292;2023-02-28T11:06:04;4.40;82.70
24402;DHT22;12539;48.808;11.292;2023-02-28T11:08:30;4.50;83.50
24402;DHT22;12539;48.808;11.292;2023-02-28T11:10:56;4.50;83.20
24402;DHT22;12539;48.808;11.292;2023-02-28T11:13:27;4.50;84.20
24402;DHT22;12539;48.808;11.292;2023-02-28T11:15:54;4.60;81.60
24402;DHT22;12539;48.808;11.292;2023-02-28T11:21:01;4.60;83.60
24402;DHT22;12539;48.808;11.292;2023-02-28T11:23:28;4.60;81.80
24402;DHT22;12539;48.808;11.292;2023-02-28T11:25:57;4.70;82.40
24402;DHT22;12539;48.808;11.292;2023-02-28T11:35:54;4.70;82.30
24402;DHT22;12539;48.808;11.292;2023-02-28T11:38:21;4.70;82.90
24402;DHT22;12539;48.808;11.292;2023-02-28T11:46:04;4.90;84.60
24402;DHT22;12539;48.808;11.292;2023-02-28T11:48:33;4.90;81.70
24402;DHT22;12539;48.808;11.292;2023-02-28T11:56:41;5.00;84.40
24402;DHT22;12539;48.808;11.292;2023-02-28T11:59:13;5.00;85.30
24402;DHT22;12539;48.808;11.292;2023-02-28T12:09:56;5.00;82.10
24402;DHT22;12539;48.808;11.292;2023-02-28T12:12:37;5.00;81.00
24402;DHT22;12539;48.808;11.292;2023-02-28T12:20:14;4.90;81.10
24402;DHT22;12539;48.808;11.292;2023-02-28T12:28:01;4.80;83.80
24402;DHT22;12539;48.808;11.292;2023-02-28T12:30:31;4.80;83.80
24402;DHT22;12539;48.808;11.292;2023-02-28T12:33:01;4.90;82.10
24402;DHT22;12539;48.808;11.292;2023-02-28T12:35:32;4.80;80.90
24402;DHT22;12539;48.808;11.292;2023-02-28T12:38:02;4.80;83.70
24402;DHT22;12539;48.808;11.292;2023-02-28T12:40:33;4.80;84.20
24402;DHT22;12539;48.808;11.292;2023-02-28T12:43:04;4.90;85.00
24402;DHT22;12539;48.808;11.292;2023-02-28T12:45:43;4.90;84.30
24402;DHT22;12539;48.808;11.292;2023-02-28T12:48:13;4.90;82.30
24402;DHT22;12539;48.808;11.292;2023-02-28T12:50:39;4.80;84.80
24402;DHT22;12539;48.808;11.292;2023-02-28T12:53:23;4.90;84.60
24402;DHT22;12539;48.808;11.292;2023-02-28T13:06:34;4.80;82.90
24402;DHT22;12539;48.808;11.292;2023-02-28T13:09:13;4.70;83.50
24402;DHT22;12539;48.808;11.292;2023-02-28T13:11:42;4.70;84.60
24402;DHT22;12539;48.808;11.292;2023-02-28T13:14:34;4.80;84.20
24402;DHT22;12539;48.808;11.292;2023-02-28T13:17:02;4.80;86.20
24402;DHT22;12539;48.808;11.292;2023-02-28T13:19:32;4.90;84.20
24402;DHT22;12539;48.808;11.292;2023-02-28T13:21:58;4.90;85.20
24402;DHT22;12539;48.808;11.292;2023-02-28T13:24:42;4.90;85.10
24402;DHT22;12539;48.808;11.292;2023-02-28T13:29:38;4.90;82.20
24402;DHT22;12539;48.808;11.292;2023-02-28T13:34:34;4.90;84.30
24402;DHT22;12539;48.808;11.292;2023-02-28T13:37:43;4.90;83.50
24402;DHT22;12539;48.808;11.292;2023-02-28T13:42:35;5.00;87.30
24402;DHT22;12539;48.808;11.292;2023-02-28T13:47:36;5.10;85.20
24402;DHT22;12539;48.808;11.292;2023-02-28T13:52:52;5.30;86.40
24402;DHT22;12539;48.808;11.292;2023-02-28T14:00:35;5.30;83.30
24402;DHT22;12539;48.808;11.292;2023-02-28T14:03:07;5.30;85.10
24402;DHT22;12539;48.808;11.292;2023-02-28T14:05:36;5.30;85.40
24402;DHT22;12539;48.808;11.292;2023-02-28T14:08:21;5.30;85.20
24402;DHT22;12539;48.808;11.292;2023-02-28T14:11:02;5.40;85.50
24402;DHT22;12539;48.808;11.292;2023-02-28T14:13:44;5.40;88.50
24402;DHT22;12539;48.808;11.292;2023-02-28T14:16:16;5.50;86.50
24402;DHT22;12539;48.808;11.292;2023-02-28T14:21:56;5.50;87.70
24402;DHT22;12539;48.808;11.292;2023-02-28T14:34:34;5.60;86.70
24402;DHT22;12539;48.808;11.292;2023-02-28T14:37:03;5.70;86.30
24402;DHT22;12539;48.808;11.292;2023-02-28T14:39:28;5.70;84.50
24402;DHT22;12539;48.808;11.292;2023-02-28T14:41:58;5.70;84.30
24402;DHT22;12539;48.808;11.292;2023-02-28T14:44:30;5.80;85.90
24402;DHT22;12539;48.808;11.292;2023-02-28T14:46:57;5.80;86.10
24402;DHT22;12539;48.808;11.292;2023-02-28T14:49:25;5.80;88.00
24402;DHT22;12539;48.808;11.292;2023-02-28T14:52:12;5.90;88.00
24402;DHT22;12539;48.808;11.292;2023-02-28T14:54:40;5.90;86.40
24402;DHT22;12539;48.808;11.292;2023-02-28T14:57:06;5.80;86.90
24402;DHT22;12539;48.808;11.292;2023-02-28T14:59:32;5.90;87.60
24402;DHT22;12539;48.808;11.292;2023-02-28T15:04:43;5.80;84.50
24402;DHT22;12539;48.808;11.292;2023-02-28T15:07:14;5.80;87.00
24402;DHT22;12539;48.808;11.292;2023-02-28T15:09:40;5.80;85.90
24402;DHT22;12539;48.808;11.292;2023-02-28T15:12:06;5.80;86.20
24402;DHT22;12539;48.808;11.292;2023-02-28T15:14:32;5.80;87.60
24402;DHT22;12539;48.808;11.292;2023-02-28T15:17:02;5.80;87.40
24402;DHT22;12539;48.808;11.292;2023-02-28T15:19:32;5.70;87.10
24402;DHT22;12539;48.808;11.292;2023-02-28T15:22:01;5.70;88.00
24402;DHT22;12539;48.808;11.292;2023-02-28T15:26:59;5.70;90.10
24402;DHT22;12539;48.808;11.292;2023-02-28T15:29:26;5.80;90.40
24402;DHT22;12539;48.808;11.292;2023-02-28T15:31:56;5.70;88.10
24402;DHT22;12539;48.808;11.292;2023-02-28T15:34:34;5.60;89.10
24402;DHT22;12539;48.808;11.292;2023-02-28T15:37:00;5.60;88.00
24402;DHT22;12539;48.808;11.292;2023-02-28T15:39:26;5.50;88.10
24402;DHT22;12539;48.808;11.292;2023-02-28T15:41:54;5.50;88.50
24402;DHT22;12539;48.808;11.292;2023-02-28T15:44:34;5.50;88.50
24402;DHT22;12539;48.808;11.292;2023-02-28T15:49:29;5.50;90.70
24402;DHT22;12539;48.808;11.292;2023-02-28T15:51:59;5.50;90.90
24402;DHT22;12539;48.808;11.292;2023-02-28T15:54:30;5.50;92.20
24402;DHT22;12539;48.808;11.292;2023-02-28T15:56:57;5.50;92.20
24402;DHT22;12539;48.808;11.292;2023-02-28T15:59:26;5.60;93.10
24402;DHT22;12539;48.808;11.292;2023-02-28T16:02:02;5.60;93.50
24402;DHT22;12539;48.808;11.292;2023-02-28T16:04:27;5.70;94.30
24402;DHT22;12539;48.808;11.292;2023-02-28T16:09:25;5.80;95.30
24402;DHT22;12539;48.808;11.292;2023-02-28T16:11:53;5.70;95.40
24402;DHT22;12539;48.808;11.292;2023-02-28T16:14:20;5.70;96.30
24402;DHT22;12539;48.808;11.292;2023-02-28T16:16:49;5.70;96.20
24402;DHT22;12539;48.808;11.292;2023-02-28T16:19:14;5.60;97.00
24402;DHT22;12539;48.808;11.292;2023-02-28T16:21:40;5.60;97.50
24402;DHT22;12539;48.808;11.292;2023-02-28T16:24:06;5.60;98.30
24402;DHT22;12539;48.808;11.292;2023-02-28T16:26:32;5.50;98.50
24402;DHT22;12539;48.808;11.292;2023-02-28T16:29:00;5.50;97.50
24402;DHT22;12539;48.808;11.292;2023-02-28T16:31:26;5.40;98.30
24402;DHT22;12539;48.808;11.292;2023-02-28T16:33:52;5.30;98.70
24402;DHT22;12539;48.808;11.292;2023-02-28T16:36:22;5.30;98.90
24402;DHT22;12539;48.808;11.292;2023-02-28T16:38:50;5.20;99.30
24402;DHT22;12539;48.808;11.292;2023-02-28T16:41:20;5.20;99.60
24402;DHT22;12539;48.808;11.292;2023-02-28T16:43:47;5.20;99.40
24402;DHT22;12539;48.808;11.292;2023-02-28T16:46:16;5.10;98.90
24402;DHT22;12539;48.808;11.292;2023-02-28T16:48:42;5.00;99.80
24402;DHT22;12539;48.808;11.292;2023-02-28T16:51:11;4.90;99.60
24402;DHT22;12539;48.808;11.292;2023-02-28T16:53:37;4.90;99.80
24402;DHT22;12539;48.808;11.292;2023-02-28T16:56:02;4.80;99.70
24402;DHT22;12539;48.808;11.292;2023-02-28T16:58:29;4.70;99.90
24402;DHT22;12539;48.808;11.292;2023-02-28T17:00:55;4.70;99.90
24402;DHT22;12539;48.808;11.292;2023-02-28T17:03:22;4.70;99.90
24402;DHT22;12539;48.808;11.292;2023-02-28T17:05:48;4.60;99.90
24402;DHT22;12539;48.808;11.292;2023-02-28T17:08:13;4.60;99.90
24402;DHT22;12539;48.808;11.292;2023-02-28T17:10:39;4.50;99.90
24402;DHT22;12539;48.808;11.292;2023-02-28T17:13:04;4.50;99.90
24402;DHT22;12539;48.808;11.292;2023-02-28T17:15:33;4.50;99.90
24402;DHT22;12539;48.808;11.292;2023-02-28T17:17:58;4.50;99.90
24402;DHT22;12539;48.808;11.292;2023-02-28T17:20:24;4.50;99.90
24402;DHT22;12539;48.808;11.292;2023-02-28T17:22:52;4.50;99.90
24402;DHT22;12539;48.808;11.292;2023-02-28T17:25:18;4.60;99.90
24402;DHT22;12539;48.808;11.292;2023-02-28T17:27:44;4.60;99.90
24402;DHT22;12539;48.808;11.292;2023-02-28T17:30:17;4.60;99.90
24402;DHT22;12539;48.808;11.292;2023-02-28T17:32:43;4.60;99.90
24402;DHT22;12539;48.808;11.292;2023-02-28T17:35:09;4.70;99.90
24402;DHT22;12539;48.808;11.292;2023-02-28T17:37:35;4.60;99.90
24402;DHT22;12539;48.808;11.292;2023-02-28T17:40:00;4.70;99.90
24402;DHT22;12539;48.808;11.292;2023-02-28T17:42:26;4.60;99.90
24402;DHT22;12539;48.808;11.292;2023-02-28T17:44:52;4.60;99.90
24402;DHT22;12539;48.808;11.292;2023-02-28T17:47:17;4.50;99.90
24402;DHT22;12539;48.808;11.292;2023-02-28T17:49:43;4.50;99.80
24402;DHT22;12539;48.808;11.292;2023-02-28T17:52:09;4.50;99.90
24402;DHT22;12539;48.808;11.292;2023-02-28T17:54:34;4.40;99.90
24402;DHT22;12539;48.808;11.292;2023-02-28T17:57:00;4.50;99.90
24402;DHT22;12539;48.808;11.292;2023-02-28T17:59:25;4.50;99.90
24402;DHT22;12539;48.808;11.292;2023-02-28T18:02:02;4.40;99.30
24402;DHT22;12539;48.808;11.292;2023-02-28T18:04:28;4.50;98.90